Sunday, August 30, 2015, 6:26 PM EDT

KPTW, Pottstown Limerick Airport

Location: Royersford, PA, United States Lat: 40.233
Local Time: 6:26 PM EDT (22:26 GMT) Lon: -75.55
Time Zone: US/Eastern Elev: 291 ft

Show me the last for .
Show Decoded

2015-08-30 17:54 METAR KPTW 302154Z AUTO 19006KT 10SM BKN050 BKN060 30/19 A3005 RMK AO2 SLP169
                 T03000194 =
2015-08-30 16:54 METAR KPTW 302054Z AUTO VRB05KT 10SM BKN050 BKN065 30/18 A3005 RMK AO2 SLP170
                 T03000178 56014 =
2015-08-30 15:54 METAR KPTW 301954Z AUTO 20006KT 10SM BKN050 31/19 A3006 RMK AO2 SLP174 T03060189
                 =
2015-08-30 14:54 METAR KPTW 301854Z AUTO 23007KT 200V260 10SM SCT049 SCT060 30/19 A3008 RMK AO2
                 SLP180 T03000189 =
2015-08-30 13:54 METAR KPTW 301754Z AUTO 18005KT 10SM SCT060 29/19 A3009 RMK AO2 SLP185 T02940194
                 10294 20194 58017 =
2015-08-30 12:54 METAR KPTW 301654Z AUTO 20006KT 10SM CLR 29/19 A3011 RMK AO2 SLP190 T02940194 =
2015-08-30 11:54 METAR KPTW 301554Z AUTO VRB04KT 10SM CLR 28/20 A3013 RMK AO2 SLP197 T02780200 =
2015-08-30 10:54 METAR KPTW 301454Z AUTO 24003KT 10SM CLR 25/19 A3014 RMK AO2 SLP202 T02500194
                 50001 =
2015-08-30 09:54 METAR KPTW 301354Z AUTO VRB04KT 10SM CLR 23/19 A3014 RMK AO2 SLP202 T02330194 =
2015-08-30 08:54 METAR KPTW 301254Z AUTO 21003KT 10SM CLR 21/18 A3014 RMK AO2 SLP201 T02110183 =
2015-08-30 06:54 METAR KPTW 301054Z AUTO 00000KT 9SM CLR 17/17 A3013 RMK AO2 SLP198 T01720167 =
2015-08-30 05:54 METAR KPTW 300954Z AUTO 00000KT 10SM CLR 17/17 A3012 RMK AO2 SLP194 T01670167 =
2015-08-30 04:54 METAR KPTW 300854Z AUTO 00000KT 10SM CLR 17/17 A3012 RMK AO2 SLP195 T01720167
                 55001 =
2015-08-30 03:54 METAR KPTW 300754Z AUTO 00000KT 10SM CLR 17/17 A3012 RMK AO2 SLP193 T01720167 =
2015-08-30 02:54 METAR KPTW 300654Z AUTO 00000KT 10SM CLR 18/17 A3012 RMK AO2 SLP193 T01780172 =
2015-08-30 00:54 METAR KPTW 300454Z AUTO 00000KT 10SM CLR 19/18 A3014 RMK AO2 SLP202 T01890178
                 402890122 =
2015-08-29 23:54 METAR KPTW 300354Z AUTO 00000KT 10SM CLR 21/18 A3014 RMK AO2 SLP202 T02060178 =
2015-08-29 22:54 METAR KPTW 300254Z AUTO 00000KT 10SM CLR 22/18 A3014 RMK AO2 SLP201 T02170178
                 51006 =
2015-08-29 21:54 METAR KPTW 300154Z AUTO 20004KT 10SM CLR 23/18 A3013 RMK AO2 SLP199 T02280178 =
2015-08-29 20:54 METAR KPTW 300054Z AUTO 18003KT 10SM CLR 23/17 A3013 RMK AO2 SLP200 T02280172 =
2015-08-29 19:54 METAR KPTW 292354Z AUTO 00000KT 10SM FEW043 25/17 A3012 RMK AO2 SLP196 T02500172
                 10289 20250 56002 =
2015-08-29 18:54 METAR KPTW 292254Z AUTO 20005KT 10SM CLR 27/17 A3012 RMK AO2 SLP196 T02670172 =

Support USWX by starting your Amazon purchase here.